Time;durP1;ratioP1;P1;durP2;ratioP2;P2;SDS_P1;SDS_P2;PMS_P1;PMS_P2;Temp;Humidity;BMP_temperature;BMP_pressure;BME280_temperature;BME280_humidity;BME280_pressure;Samples;Min_cycle;Max_cycle;Signal;HPM_P1;HPM_P2
2022/01/19 00:00:48;;;;;;;20.05;10.57;;;4.50;99.90;;;;;;5012254;28;20571;-56
2022/01/19 00:03:14;;;;;;;20.50;11.88;;;4.50;99.90;;;;;;5011315;28;20446;-56
2022/01/19 00:05:40;;;;;;;19.05;10.88;;;4.50;99.90;;;;;;5011338;28;20443;-53
2022/01/19 00:08:06;;;;;;;19.45;10.98;;;4.50;99.90;;;;;;5011790;28;20030;-54
2022/01/19 00:10:32;;;;;;;19.67;10.68;;;4.50;99.90;;;;;;4994405;28;20022;-57
2022/01/19 00:12:59;;;;;;;19.33;11.00;;;4.50;99.90;;;;;;5011076;28;20038;-51
2022/01/19 00:15:27;;;;;;;18.20;10.43;;;4.40;99.90;;;;;;5011103;28;20017;-52
2022/01/19 00:17:58;;;;;;;18.88;10.45;;;4.40;99.90;;;;;;5011671;28;20037;-55
2022/01/19 00:20:24;;;;;;;18.95;10.50;;;4.40;99.90;;;;;;5011872;28;20044;-52
2022/01/19 00:22:51;;;;;;;16.17;9.88;;;4.40;99.90;;;;;;5010734;28;20030;-53
2022/01/19 00:25:22;;;;;;;23.40;11.35;;;4.40;99.90;;;;;;5011662;28;20493;-53
2022/01/19 00:27:48;;;;;;;17.98;10.88;;;4.40;99.90;;;;;;5011347;28;20251;-50
2022/01/19 00:30:14;;;;;;;21.90;10.93;;;4.40;99.90;;;;;;5011917;28;20080;-51
2022/01/19 00:32:43;;;;;;;14.68;10.02;;;4.40;99.90;;;;;;5011604;28;20052;-57
2022/01/19 00:35:10;;;;;;;18.67;9.80;;;4.40;99.90;;;;;;5009220;28;20084;-55
2022/01/19 00:37:41;;;;;;;15.38;11.05;;;4.40;99.90;;;;;;5010744;28;20029;-54
2022/01/19 00:40:09;;;;;;;21.75;11.95;;;4.40;99.90;;;;;;5011353;28;20124;-50
2022/01/19 00:42:35;;;;;;;17.88;11.65;;;4.40;99.90;;;;;;5010934;28;20042;-52
2022/01/19 00:45:02;;;;;;;17.02;10.75;;;4.30;99.90;;;;;;5010472;28;20113;-54
2022/01/19 00:47:27;;;;;;;20.38;11.75;;;4.30;99.90;;;;;;5010847;28;20112;-54
2022/01/19 00:49:54;;;;;;;20.55;12.18;;;4.30;99.90;;;;;;5011102;28;20445;-53
2022/01/19 00:52:20;;;;;;;22.13;11.95;;;4.30;99.90;;;;;;5010347;28;20024;-54
2022/01/19 00:54:46;;;;;;;13.75;10.65;;;4.30;99.90;;;;;;5010959;28;20030;-54
2022/01/19 00:57:11;;;;;;;18.20;11.20;;;4.30;99.90;;;;;;5010918;28;20033;-53
2022/01/19 00:59:37;;;;;;;19.38;12.13;;;4.30;99.90;;;;;;5010746;28;20084;-53
2022/01/19 01:02:03;;;;;;;20.48;11.18;;;4.30;99.90;;;;;;5010230;28;20520;-56
2022/01/19 01:04:29;;;;;;;20.77;12.95;;;4.30;99.90;;;;;;5010904;28;20056;-50
2022/01/19 01:06:55;;;;;;;22.90;11.93;;;4.20;99.90;;;;;;5010899;28;20026;-51
2022/01/19 01:09:21;;;;;;;21.13;10.95;;;4.30;99.90;;;;;;5010946;28;20030;-50
2022/01/19 01:11:58;;;;;;;23.85;11.88;;;4.30;99.90;;;;;;5010805;28;20029;-50
2022/01/19 01:18:17;;;;;;;16.77;10.43;;;4.20;99.90;;;;;;5010939;28;20084;-56
2022/01/19 01:19:59;;;;;;;;;;;4.10;99.90;;;;;;5010656;28;20034;-54
2022/01/19 01:22:30;;;;;;;15.97;9.90;;;4.10;99.90;;;;;;5010141;28;19936;-53
2022/01/19 01:24:55;;;;;;;22.90;11.25;;;4.10;99.90;;;;;;4992291;28;20022;-51
2022/01/19 01:27:21;;;;;;;18.40;11.10;;;4.10;99.90;;;;;;5010007;28;20682;-53
2022/01/19 01:29:46;;;;;;;23.75;11.43;;;4.10;99.90;;;;;;5010177;28;20026;-53
2022/01/19 01:32:12;;;;;;;21.10;11.82;;;4.10;99.90;;;;;;5010181;28;20043;-49
2022/01/19 01:34:37;;;;;;;19.05;11.38;;;4.10;99.90;;;;;;5010257;28;20026;-53
2022/01/19 01:37:03;;;;;;;18.20;11.68;;;4.10;99.90;;;;;;5006559;28;20045;-50
2022/01/19 01:39:29;;;;;;;20.90;12.38;;;4.10;99.90;;;;;;5010200;28;20061;-54
2022/01/19 01:41:55;;;;;;;21.55;11.30;;;4.10;99.90;;;;;;5009643;28;20785;-53
2022/01/19 01:44:20;;;;;;;20.23;12.13;;;4.00;99.90;;;;;;5010330;28;20022;-55
2022/01/19 01:46:50;;;;;;;20.95;11.65;;;4.10;99.90;;;;;;5009677;28;20384;-52
2022/01/19 01:49:27;;;;;;;21.30;11.18;;;4.10;99.90;;;;;;5009970;28;20022;-53
2022/01/19 01:54:40;;;;;;;19.83;11.43;;;4.00;99.90;;;;;;5009748;28;20088;-51
2022/01/19 01:57:06;;;;;;;20.60;11.75;;;4.00;99.90;;;;;;5009388;28;20025;-52
2022/01/19 01:59:35;;;;;;;26.20;13.27;;;4.00;99.90;;;;;;5006572;28;20064;-53
2022/01/19 02:02:00;;;;;;;21.48;11.52;;;4.00;99.90;;;;;;5006540;28;20045;-50
2022/01/19 02:04:26;;;;;;;21.77;11.02;;;4.00;99.90;;;;;;5008361;28;20060;-52
2022/01/19 02:09:38;;;;;;;21.70;13.25;;;4.00;99.90;;;;;;5009714;28;20072;-53
2022/01/19 02:23:24;;;;;;;28.63;17.27;;;4.00;99.90;;;;;;5008948;28;20060;-53
2022/01/19 02:25:53;;;;;;;32.15;19.70;;;4.00;99.90;;;;;;5009504;28;20018;-55
2022/01/19 02:36:39;;;;;;;38.53;22.02;;;3.90;99.90;;;;;;5009549;28;20044;-50
2022/01/19 02:41:51;;;;;;;36.60;22.75;;;3.90;99.90;;;;;;5009268;28;20037;-56
2022/01/19 02:44:33;;;;;;;40.53;21.77;;;3.90;99.90;;;;;;5009091;28;20045;-53
2022/01/19 02:49:48;;;;;;;31.98;17.98;;;4.00;99.90;;;;;;5008866;28;20101;-56
2022/01/19 02:52:14;;;;;;;38.10;20.58;;;3.90;99.90;;;;;;5006925;28;20132;-54
2022/01/19 02:54:40;;;;;;;37.30;21.33;;;3.90;99.90;;;;;;5008328;28;20126;-51
2022/01/19 02:57:09;;;;;;;40.20;24.27;;;3.90;99.90;;;;;;5008547;28;20026;-51
2022/01/19 03:10:15;;;;;;;45.78;23.58;;;3.80;99.90;;;;;;5008952;28;20040;-50
2022/01/19 03:12:41;;;;;;;43.72;24.42;;;3.80;99.90;;;;;;5008705;28;20117;-50
2022/01/19 03:15:10;;;;;;;38.83;23.33;;;3.80;99.90;;;;;;5009334;28;20503;-54
2022/01/19 03:17:36;;;;;;;41.33;22.95;;;3.80;99.90;;;;;;5008305;28;20492;-53
2022/01/19 03:20:03;;;;;;;40.00;20.63;;;3.70;99.90;;;;;;5009187;28;20034;-52
2022/01/19 03:22:35;;;;;;;37.40;20.58;;;3.70;99.90;;;;;;5007945;28;20034;-52
2022/01/19 03:25:02;;;;;;;28.90;16.73;;;3.70;99.90;;;;;;5008701;28;20022;-52
2022/01/19 03:27:28;;;;;;;35.15;18.17;;;3.70;99.90;;;;;;5007394;28;20034;-53
2022/01/19 03:29:53;;;;;;;34.97;18.10;;;3.70;99.90;;;;;;5008292;28;20087;-54
2022/01/19 03:32:19;;;;;;;32.95;16.25;;;3.70;99.90;;;;;;5008494;28;20030;-50
2022/01/19 03:34:45;;;;;;;29.55;17.05;;;3.70;99.90;;;;;;5008543;28;20038;-55
2022/01/19 03:37:11;;;;;;;36.53;17.52;;;3.70;99.90;;;;;;5008549;28;20388;-51
2022/01/19 03:39:37;;;;;;;35.53;17.17;;;3.70;99.90;;;;;;4990662;28;20037;-54
2022/01/19 03:42:03;;;;;;;28.48;15.90;;;3.70;99.90;;;;;;4990678;28;20022;-53
2022/01/19 03:44:28;;;;;;;28.10;15.98;;;3.70;99.90;;;;;;5008427;28;20121;-56
2022/01/19 03:46:57;;;;;;;30.38;16.70;;;3.70;99.90;;;;;;5007882;28;20124;-50
2022/01/19 03:49:25;;;;;;;29.23;14.50;;;3.70;99.90;;;;;;5008532;28;20049;-52
2022/01/19 03:51:58;;;;;;;26.92;15.05;;;3.70;99.90;;;;;;5007438;28;20036;-56
2022/01/19 03:54:29;;;;;;;27.15;15.55;;;3.70;99.90;;;;;;5007985;28;20026;-51
2022/01/19 03:56:55;;;;;;;26.00;14.60;;;3.70;99.90;;;;;;5007766;28;20129;-53
2022/01/19 03:59:21;;;;;;;27.92;14.68;;;3.60;99.90;;;;;;5007801;28;20033;-53
2022/01/19 04:01:47;;;;;;;24.92;14.90;;;3.60;99.90;;;;;;5007278;28;20029;-53
2022/01/19 04:06:55;;;;;;;22.25;14.00;;;3.60;99.90;;;;;;5007986;28;20467;-54
2022/01/19 04:09:22;;;;;;;32.80;15.90;;;3.60;99.90;;;;;;5009350;28;20238;-53
2022/01/19 04:11:48;;;;;;;25.92;14.82;;;3.60;99.90;;;;;;5011289;28;20400;-54
2022/01/19 04:14:22;;;;;;;26.58;14.27;;;3.60;99.90;;;;;;5012236;28;20021;-52
2022/01/19 04:16:49;;;;;;;30.08;14.82;;;3.60;99.90;;;;;;5011608;28;20029;-54
2022/01/19 04:19:23;;;;;;;25.17;13.55;;;3.50;99.90;;;;;;5011407;28;20022;-53
2022/01/19 04:21:54;;;;;;;23.98;13.45;;;3.50;99.90;;;;;;5012121;28;20030;-51
2022/01/19 04:24:20;;;;;;;26.00;13.90;;;3.50;99.90;;;;;;5010826;28;20116;-55
2022/01/19 04:26:50;;;;;;;27.20;14.75;;;3.50;99.90;;;;;;5011724;28;20042;-55
2022/01/19 04:29:15;;;;;;;24.67;13.48;;;3.50;99.90;;;;;;4993743;28;20621;-53
2022/01/19 04:31:41;;;;;;;30.00;14.55;;;3.50;99.90;;;;;;5012275;28;20188;-53
2022/01/19 04:34:07;;;;;;;29.85;14.77;;;3.60;99.90;;;;;;5010717;28;20056;-56
2022/01/19 04:36:57;;;;;;;28.98;15.40;;;3.60;99.90;;;;;;5010546;28;20033;-52
2022/01/19 04:45:21;;;;;;;29.70;14.27;;;3.50;99.90;;;;;;5011211;28;20599;-52
2022/01/19 05:04:09;;;;;;;22.13;12.40;;;3.50;99.90;;;;;;5011193;28;20192;-50
2022/01/19 05:06:39;;;;;;;27.50;13.43;;;3.50;99.90;;;;;;5010805;28;20037;-50
2022/01/19 05:09:29;;;;;;;27.48;13.13;;;3.50;99.90;;;;;;5010382;28;20026;-56
2022/01/19 05:14:39;;;;;;;24.02;12.57;;;3.40;99.90;;;;;;5010965;28;20461;-55
2022/01/19 05:17:05;;;;;;;27.55;13.20;;;3.50;99.90;;;;;;5010755;28;20034;-51
2022/01/19 05:19:30;;;;;;;25.98;11.30;;;3.40;99.90;;;;;;5010361;28;20601;-53
2022/01/19 05:21:56;;;;;;;24.92;12.73;;;3.40;99.90;;;;;;5009688;28;20084;-55
2022/01/19 05:24:21;;;;;;;25.58;12.48;;;3.40;99.90;;;;;;5010427;28;20148;-55
2022/01/19 05:26:50;;;;;;;25.27;12.32;;;3.40;99.90;;;;;;5010346;28;20029;-51
2022/01/19 05:29:16;;;;;;;29.52;13.02;;;3.40;99.90;;;;;;5010260;28;20041;-49
2022/01/19 05:31:42;;;;;;;22.20;12.15;;;3.40;99.90;;;;;;4992809;28;20419;-53
2022/01/19 05:34:07;;;;;;;23.48;14.45;;;3.40;99.90;;;;;;5009363;28;20112;-54
2022/01/19 05:36:33;;;;;;;25.42;11.98;;;3.40;99.90;;;;;;5010139;28;20250;-53
2022/01/19 05:39:00;;;;;;;19.73;12.35;;;3.40;99.90;;;;;;5010545;28;20073;-50
2022/01/19 05:41:26;;;;;;;24.05;10.82;;;3.40;99.90;;;;;;5010325;28;20504;-54
2022/01/19 05:43:52;;;;;;;25.02;11.55;;;3.40;99.90;;;;;;5009834;28;20056;-55
2022/01/19 05:46:19;;;;;;;22.67;12.07;;;3.40;99.90;;;;;;5009378;28;20080;-55
2022/01/19 05:48:45;;;;;;;22.15;11.80;;;3.40;99.90;;;;;;5009795;28;20038;-52
2022/01/19 05:51:10;;;;;;;25.67;13.02;;;3.40;99.90;;;;;;5009797;28;20026;-52
2022/01/19 05:53:36;;;;;;;22.10;12.63;;;3.40;99.90;;;;;;5009375;28;20119;-53
2022/01/19 05:56:02;;;;;;;25.00;12.65;;;3.40;99.90;;;;;;5009717;28;20037;-49
2022/01/19 05:58:27;;;;;;;26.88;12.32;;;3.40;99.90;;;;;;5009527;28;20041;-53
2022/01/19 06:00:53;;;;;;;25.33;11.30;;;3.40;99.90;;;;;;5009599;28;20492;-54
2022/01/19 06:03:18;;;;;;;23.15;12.15;;;3.40;99.90;;;;;;5008962;28;20484;-56
2022/01/19 06:05:44;;;;;;;20.52;10.43;;;3.40;99.90;;;;;;5009010;28;20084;-54
2022/01/19 06:08:18;;;;;;;20.92;10.48;;;3.30;99.90;;;;;;5009482;28;20399;-51
2022/01/19 06:10:44;;;;;;;20.23;10.93;;;3.40;99.90;;;;;;5009702;28;20030;-51
2022/01/19 06:13:13;;;;;;;25.08;11.75;;;3.30;99.90;;;;;;5009257;28;20044;-55
2022/01/19 06:15:38;;;;;;;21.20;10.68;;;3.30;99.90;;;;;;4992217;28;20080;-54
2022/01/19 06:18:04;;;;;;;20.00;11.27;;;3.30;99.90;;;;;;5009533;28;20029;-52
2022/01/19 06:20:29;;;;;;;23.15;12.00;;;3.30;99.90;;;;;;5009127;28;21232;-53
2022/01/19 06:22:55;;;;;;;24.10;11.80;;;3.30;99.90;;;;;;5009028;28;20030;-54
2022/01/19 06:25:21;;;;;;;25.70;11.63;;;3.30;99.90;;;;;;5008359;28;20092;-54
2022/01/19 06:27:46;;;;;;;23.15;11.90;;;3.40;99.90;;;;;;5008724;28;20110;-54
2022/01/19 06:30:13;;;;;;;22.20;11.10;;;3.40;99.90;;;;;;5008724;28;20129;-52
2022/01/19 06:32:39;;;;;;;31.10;14.13;;;3.40;99.90;;;;;;5007601;28;20435;-56
2022/01/19 06:35:06;;;;;;;29.40;14.05;;;3.40;99.90;;;;;;5008504;28;20088;-54
2022/01/19 06:37:32;;;;;;;28.77;15.20;;;3.40;99.90;;;;;;5009447;28;20056;-54
2022/01/19 06:39:57;;;;;;;27.75;13.82;;;3.40;99.90;;;;;;5009308;28;20046;-55
2022/01/19 06:42:23;;;;;;;28.15;14.20;;;3.40;99.90;;;;;;5008381;28;20056;-53
2022/01/19 06:44:48;;;;;;;27.45;15.13;;;3.40;99.90;;;;;;5008431;28;20041;-51
2022/01/19 06:47:14;;;;;;;36.75;18.23;;;3.40;99.90;;;;;;5008793;28;20041;-53
2022/01/19 06:49:39;;;;;;;35.72;17.45;;;3.50;99.90;;;;;;5008914;28;20119;-54
2022/01/19 06:52:05;;;;;;;39.20;19.38;;;3.50;99.90;;;;;;4990051;28;20418;-51
2022/01/19 06:54:31;;;;;;;45.28;19.10;;;3.50;99.90;;;;;;5009393;28;20372;-56
2022/01/19 06:56:56;;;;;;;36.40;19.20;;;3.50;99.90;;;;;;5009255;28;20097;-51
2022/01/19 06:59:22;;;;;;;43.42;20.42;;;3.50;99.90;;;;;;5008219;28;20037;-56
2022/01/19 07:01:47;;;;;;;42.97;20.27;;;3.50;99.90;;;;;;5009506;28;20196;-51
2022/01/19 07:04:15;;;;;;;44.85;21.80;;;3.50;99.90;;;;;;5007591;28;20077;-53
2022/01/19 07:06:41;;;;;;;47.15;22.65;;;3.60;99.90;;;;;;5007993;28;20530;-54
2022/01/19 07:09:07;;;;;;;41.38;21.77;;;3.60;99.90;;;;;;5008435;28;20030;-54
2022/01/19 07:11:33;;;;;;;46.45;22.65;;;3.60;99.90;;;;;;5008885;28;20714;-51
2022/01/19 07:13:58;;;;;;;54.90;24.73;;;3.60;99.90;;;;;;5008621;28;20040;-54
2022/01/19 07:16:24;;;;;;;49.22;23.38;;;3.60;99.90;;;;;;5008826;28;20026;-51
2022/01/19 07:18:50;;;;;;;54.40;24.83;;;3.60;99.90;;;;;;5008125;28;20076;-50
2022/01/19 07:21:15;;;;;;;48.28;23.27;;;3.70;99.90;;;;;;5008439;28;20036;-52
2022/01/19 07:23:41;;;;;;;46.65;22.80;;;3.70;99.90;;;;;;5008081;28;20030;-54
2022/01/19 07:26:07;;;;;;;51.95;24.15;;;3.70;99.90;;;;;;5009002;28;20041;-55
2022/01/19 07:28:33;;;;;;;45.75;24.85;;;3.70;99.90;;;;;;5007673;28;20026;-51
2022/01/19 07:30:58;;;;;;;50.92;23.73;;;3.80;99.90;;;;;;5008749;28;20459;-52
2022/01/19 07:33:24;;;;;;;48.03;23.98;;;3.80;99.90;;;;;;5008260;28;20034;-53
2022/01/19 07:35:51;;;;;;;51.30;24.83;;;3.80;99.90;;;;;;5008579;28;20095;-53
2022/01/19 07:38:18;;;;;;;52.30;24.55;;;3.80;99.90;;;;;;5008400;28;20488;-53
2022/01/19 07:40:43;;;;;;;47.15;22.88;;;3.80;99.90;;;;;;5008752;28;20528;-56
2022/01/19 07:43:09;;;;;;;50.38;25.30;;;3.80;99.90;;;;;;5008015;28;20036;-57
2022/01/19 07:45:35;;;;;;;49.15;25.52;;;3.80;99.90;;;;;;5012589;28;20280;-51
2022/01/19 07:48:00;;;;;;;52.47;25.75;;;3.80;99.90;;;;;;5012021;28;20045;-52
2022/01/19 07:50:26;;;;;;;49.42;26.35;;;3.90;99.90;;;;;;5012606;28;20023;-56
2022/01/19 07:52:51;;;;;;;49.42;26.73;;;3.80;99.90;;;;;;5011467;28;20038;-53
2022/01/19 07:55:17;;;;;;;50.30;26.52;;;3.80;99.90;;;;;;5012234;28;20091;-52
2022/01/19 07:57:47;;;;;;;53.28;28.08;;;3.90;99.90;;;;;;5012053;28;20034;-50
2022/01/19 08:00:14;;;;;;;50.75;27.13;;;3.80;99.90;;;;;;5011687;28;20026;-53
2022/01/19 08:02:40;;;;;;;51.63;24.92;;;3.90;99.90;;;;;;5011989;28;20061;-54
2022/01/19 08:05:07;;;;;;;55.08;27.92;;;3.80;99.90;;;;;;5011922;28;20057;-51
2022/01/19 08:07:33;;;;;;;52.92;26.30;;;3.80;99.90;;;;;;5011557;28;20117;-53
2022/01/19 08:09:59;;;;;;;53.80;29.10;;;3.80;99.90;;;;;;5011870;28;20112;-51
2022/01/19 08:12:25;;;;;;;53.65;27.85;;;3.80;99.90;;;;;;4994403;28;20022;-53
2022/01/19 08:14:51;;;;;;;48.53;26.75;;;3.80;99.90;;;;;;5011683;28;20030;-53
2022/01/19 08:17:17;;;;;;;43.17;25.55;;;3.90;99.90;;;;;;5011940;28;20026;-52
2022/01/19 08:19:42;;;;;;;51.03;26.60;;;3.80;99.90;;;;;;5011804;28;20029;-50
2022/01/19 08:22:08;;;;;;;52.38;27.17;;;3.80;99.90;;;;;;5011027;28;20284;-50
2022/01/19 08:24:33;;;;;;;48.92;25.65;;;3.90;99.90;;;;;;5011334;28;20032;-52
2022/01/19 08:26:59;;;;;;;53.55;27.83;;;3.80;99.90;;;;;;5010731;28;20425;-50
2022/01/19 08:29:24;;;;;;;54.60;28.70;;;3.80;99.90;;;;;;5011475;28;20441;-55
2022/01/19 08:31:50;;;;;;;50.70;27.77;;;3.80;99.90;;;;;;5011259;28;20030;-54
2022/01/19 08:34:17;;;;;;;53.45;28.48;;;3.80;99.90;;;;;;5011529;28;20101;-51
2022/01/19 08:36:43;;;;;;;51.53;26.90;;;3.80;99.90;;;;;;5010563;28;20037;-57
2022/01/19 08:39:09;;;;;;;53.90;29.13;;;3.80;99.90;;;;;;5008959;28;20037;-54
2022/01/19 08:41:36;;;;;;;53.88;29.63;;;3.90;99.90;;;;;;4992768;28;20400;-53
2022/01/19 08:44:02;;;;;;;53.10;28.92;;;3.90;99.90;;;;;;5010203;28;20041;-51
2022/01/19 08:46:27;;;;;;;54.33;29.42;;;3.90;99.90;;;;;;5010279;28;20033;-53
2022/01/19 08:48:53;;;;;;;50.28;27.20;;;3.90;99.90;;;;;;4992609;28;20110;-55
2022/01/19 08:51:19;;;;;;;54.30;27.02;;;3.90;99.90;;;;;;5010445;28;20096;-54
2022/01/19 08:53:44;;;;;;;50.55;28.48;;;3.90;99.90;;;;;;5009581;28;20109;-54
2022/01/19 08:56:10;;;;;;;57.33;29.90;;;3.90;99.90;;;;;;5009485;28;20030;-52
2022/01/19 08:58:35;;;;;;;49.25;26.60;;;3.90;99.90;;;;;;5010523;28;20026;-54
2022/01/19 09:01:01;;;;;;;56.25;28.63;;;3.90;99.90;;;;;;5010530;28;20559;-53
2022/01/19 09:03:28;;;;;;;48.92;27.75;;;3.90;99.90;;;;;;5010853;28;20049;-51
2022/01/19 09:05:53;;;;;;;51.28;29.55;;;3.90;99.90;;;;;;5011056;28;20021;-53
2022/01/19 09:08:19;;;;;;;53.53;29.50;;;3.90;99.90;;;;;;5010741;28;20175;-52
2022/01/19 09:10:47;;;;;;;55.38;30.40;;;3.90;99.90;;;;;;5011144;28;20060;-53
2022/01/19 09:13:13;;;;;;;57.50;27.88;;;3.90;99.90;;;;;;5010466;28;20025;-52
2022/01/19 09:15:38;;;;;;;50.20;27.90;;;3.90;99.90;;;;;;5010851;28;20409;-52
2022/01/19 09:18:04;;;;;;;52.08;29.23;;;3.90;99.90;;;;;;5010965;28;20030;-55
2022/01/19 09:20:30;;;;;;;46.90;27.83;;;3.90;99.90;;;;;;5010260;28;20443;-52
2022/01/19 09:22:55;;;;;;;55.60;30.25;;;4.00;99.90;;;;;;5010480;28;20164;-53
2022/01/19 09:25:21;;;;;;;51.90;29.15;;;3.90;99.90;;;;;;5010326;28;20018;-54
2022/01/19 09:27:46;;;;;;;53.25;28.50;;;4.00;99.90;;;;;;5010935;28;20029;-54
2022/01/19 09:30:16;;;;;;;54.58;29.50;;;4.00;99.90;;;;;;5010425;28;20060;-51
2022/01/19 09:32:54;;;;;;;53.38;29.90;;;4.00;99.90;;;;;;5009455;28;20395;-55
2022/01/19 09:35:24;;;;;;;52.08;30.02;;;4.00;99.90;;;;;;5009274;28;20400;-51
2022/01/19 09:37:49;;;;;;;54.70;32.10;;;4.00;99.90;;;;;;5009715;28;20496;-51
2022/01/19 09:40:15;;;;;;;58.70;30.30;;;4.00;99.90;;;;;;5007962;28;20125;-55
2022/01/19 09:42:44;;;;;;;53.60;29.77;;;4.00;99.90;;;;;;4992116;28;20025;-58
2022/01/19 09:45:09;;;;;;;52.75;28.88;;;4.00;99.90;;;;;;5010091;28;20026;-49
2022/01/19 09:47:35;;;;;;;50.33;29.15;;;4.10;99.90;;;;;;5010263;28;20029;-55
2022/01/19 09:50:01;;;;;;;56.17;29.20;;;4.10;99.90;;;;;;5010113;28;20057;-55
2022/01/19 09:52:27;;;;;;;54.10;28.15;;;4.10;99.90;;;;;;5009704;28;20400;-53
2022/01/19 09:54:55;;;;;;;54.95;29.40;;;4.10;99.90;;;;;;5007893;28;20041;-54
2022/01/19 09:57:20;;;;;;;48.60;28.75;;;4.20;99.90;;;;;;5009501;28;20113;-51
2022/01/19 09:59:46;;;;;;;43.10;26.90;;;4.10;99.90;;;;;;5008766;28;20116;-53
2022/01/19 10:02:11;;;;;;;55.70;29.63;;;4.10;99.90;;;;;;5009863;28;20092;-57
2022/01/19 10:04:46;;;;;;;48.85;27.73;;;4.20;99.90;;;;;;5010215;28;20030;-51
2022/01/19 10:07:21;;;;;;;50.78;27.95;;;4.20;99.90;;;;;;5009879;28;20030;-53
2022/01/19 10:09:46;;;;;;;55.33;29.35;;;4.20;99.90;;;;;;5008972;28;20072;-54
2022/01/19 10:17:36;;;;;;;54.58;28.63;;;4.20;99.90;;;;;;5009638;28;20036;-56
2022/01/19 10:20:02;;;;;;;55.38;28.42;;;4.20;99.90;;;;;;5009140;28;20030;-52
2022/01/19 10:22:30;;;;;;;51.95;28.90;;;4.30;99.90;;;;;;5009699;28;20091;-53
2022/01/19 10:25:01;;;;;;;58.97;29.70;;;4.30;99.90;;;;;;5008711;28;20021;-56
2022/01/19 10:27:43;;;;;;;48.33;26.75;;;4.30;99.90;;;;;;5009404;28;20030;-52
2022/01/19 10:30:08;;;;;;;45.65;26.30;;;4.30;99.90;;;;;;5008568;28;20046;-53
2022/01/19 10:32:37;;;;;;;50.05;27.25;;;4.30;99.90;;;;;;5009119;28;20444;-50
2022/01/19 10:35:32;;;;;;;49.17;25.48;;;4.30;99.90;;;;;;5008767;28;20507;-55
2022/01/19 10:38:09;;;;;;;46.58;25.77;;;4.40;99.90;;;;;;5009134;28;20028;-52
2022/01/19 10:40:38;;;;;;;42.72;24.42;;;4.40;99.90;;;;;;4990253;28;20403;-54
2022/01/19 10:43:27;;;;;;;48.28;25.13;;;4.30;99.90;;;;;;5006790;28;20515;-54
2022/01/19 10:45:54;;;;;;;44.28;25.23;;;4.40;99.90;;;;;;5008864;28;20037;-56
2022/01/19 10:48:38;;;;;;;45.30;26.45;;;4.30;99.90;;;;;;5007339;28;20250;-54
2022/01/19 10:51:20;;;;;;;42.72;24.98;;;4.40;99.90;;;;;;5008577;28;20028;-51
2022/01/19 10:54:04;;;;;;;43.83;24.27;;;4.40;99.90;;;;;;5007971;28;20045;-55
2022/01/19 10:56:31;;;;;;;40.88;22.20;;;4.40;99.90;;;;;;5008137;28;20022;-54
2022/01/19 10:58:59;;;;;;;40.58;23.85;;;4.40;99.90;;;;;;5009362;28;20030;-51
2022/01/19 11:01:43;;;;;;;37.08;22.40;;;4.40;99.90;;;;;;5008616;28;20032;-57
2022/01/19 11:04:22;;;;;;;36.45;22.92;;;4.30;99.90;;;;;;5008815;28;20036;-54
2022/01/19 11:06:51;;;;;;;37.13;23.58;;;4.40;99.90;;;;;;5009151;28;20022;-54
2022/01/19 11:09:22;;;;;;;38.47;24.67;;;4.30;99.90;;;;;;5008375;28;20534;-53
2022/01/19 11:11:48;;;;;;;40.72;24.30;;;4.40;99.90;;;;;;4991173;28;20072;-53
2022/01/19 11:14:15;;;;;;;45.70;25.90;;;4.40;99.90;;;;;;5008587;28;20029;-55
2022/01/19 11:16:42;;;;;;;41.28;25.48;;;4.40;99.90;;;;;;5008596;28;20510;-52
2022/01/19 11:19:09;;;;;;;38.90;24.92;;;4.30;99.90;;;;;;5008324;28;20407;-55
2022/01/19 11:22:00;;;;;;;42.38;25.50;;;4.30;99.90;;;;;;5008478;28;20026;-53
2022/01/19 11:24:41;;;;;;;45.92;25.50;;;4.20;99.90;;;;;;5008161;28;20156;-50
2022/01/19 11:27:07;;;;;;;44.70;26.88;;;4.30;99.90;;;;;;5008446;28;20026;-56
2022/01/19 11:29:34;;;;;;;49.53;28.88;;;4.20;99.90;;;;;;5008438;28;20443;-51
2022/01/19 11:32:16;;;;;;;47.70;28.02;;;4.20;99.90;;;;;;5008342;28;20025;-52
2022/01/19 11:34:50;;;;;;;46.03;27.35;;;4.20;99.90;;;;;;5008005;28;20445;-53
2022/01/19 11:37:35;;;;;;;44.45;26.98;;;4.20;99.90;;;;;;5008734;28;20037;-54
2022/01/19 11:40:09;;;;;;;53.65;28.23;;;4.20;99.90;;;;;;5008629;28;20038;-54
2022/01/19 11:42:35;;;;;;;45.85;28.33;;;4.20;99.90;;;;;;5008168;28;20022;-52
2022/01/19 11:45:03;;;;;;;43.42;28.38;;;4.20;99.90;;;;;;5008454;28;20038;-54
2022/01/19 11:47:30;;;;;;;43.08;26.20;;;4.10;99.90;;;;;;5007716;28;20125;-56
2022/01/19 11:50:08;;;;;;;47.03;28.52;;;4.10;99.90;;;;;;5008706;28;20022;-55
2022/01/19 11:52:39;;;;;;;47.05;27.67;;;4.10;99.90;;;;;;5005075;28;20030;-55
2022/01/19 11:55:20;;;;;;;42.90;28.55;;;4.10;99.90;;;;;;5008242;28;20018;-54
2022/01/19 11:57:49;;;;;;;46.10;27.98;;;4.20;99.90;;;;;;5007803;28;20034;-53
2022/01/19 12:00:21;;;;;;;44.75;28.80;;;4.20;99.90;;;;;;5006219;28;20040;-55
2022/01/19 12:02:58;;;;;;;56.95;30.70;;;4.10;99.90;;;;;;4990834;28;20427;-49
2022/01/19 12:05:39;;;;;;;56.60;30.60;;;4.10;99.90;;;;;;5008548;28;20025;-53
2022/01/19 12:08:33;;;;;;;53.55;31.02;;;4.10;99.90;;;;;;5008305;28;20052;-55
2022/01/19 12:11:21;;;;;;;49.75;30.35;;;4.10;99.90;;;;;;5008545;28;20423;-51
2022/01/19 12:14:34;;;;;;;53.25;30.80;;;4.00;99.90;;;;;;5008243;28;20030;-55
2022/01/19 12:16:58;;;;;;;45.08;27.15;;;4.00;99.90;;;;;;5007604;28;21122;-52
2022/01/19 12:19:28;;;;;;;48.42;27.20;;;3.90;99.90;;;;;;5008374;28;20044;-57
2022/01/19 12:21:55;;;;;;;45.53;28.58;;;3.90;99.90;;;;;;5007700;28;20112;-52
2022/01/19 12:24:34;;;;;;;46.67;26.25;;;3.80;99.90;;;;;;5008598;28;20045;-52
2022/01/19 12:27:14;;;;;;;44.45;26.40;;;3.90;99.90;;;;;;5007924;28;20080;-53
2022/01/19 12:29:45;;;;;;;42.95;27.35;;;3.90;99.90;;;;;;5007103;28;20018;-55
2022/01/19 12:32:17;;;;;;;47.58;27.67;;;3.90;99.90;;;;;;5010105;28;20020;-54
2022/01/19 12:34:48;;;;;;;49.53;25.90;;;3.90;99.90;;;;;;5011329;28;20061;-52
2022/01/19 12:37:33;;;;;;;44.38;25.98;;;3.90;99.90;;;;;;5010782;28;20101;-51
2022/01/19 12:40:12;;;;;;;42.50;25.88;;;3.90;99.90;;;;;;5011648;28;20575;-50
2022/01/19 12:42:43;;;;;;;41.50;25.95;;;3.90;99.90;;;;;;5011582;28;20029;-55
2022/01/19 12:45:21;;;;;;;44.75;25.88;;;3.90;99.90;;;;;;5010838;28;20045;-57
2022/01/19 12:47:50;;;;;;;49.83;26.65;;;3.80;99.90;;;;;;5011384;28;20567;-51
2022/01/19 12:50:16;;;;;;;44.00;26.05;;;3.90;99.90;;;;;;5010961;28;20030;-54
2022/01/19 12:52:44;;;;;;;46.85;27.65;;;3.90;99.90;;;;;;5010392;28;20029;-54
2022/01/19 12:55:16;;;;;;;40.05;23.98;;;3.80;99.90;;;;;;5010666;28;20033;-54
2022/01/19 12:57:42;;;;;;;45.47;27.15;;;3.80;99.90;;;;;;5011200;28;20153;-53
2022/01/19 13:00:14;;;;;;;36.88;25.42;;;3.80;99.90;;;;;;5011343;28;20116;-52
2022/01/19 13:02:39;;;;;;;40.55;26.38;;;3.80;99.90;;;;;;5011137;28;20053;-55
2022/01/19 13:05:18;;;;;;;44.08;25.67;;;3.80;99.90;;;;;;5010454;28;20104;-54
2022/01/19 13:08:00;;;;;;;43.17;26.15;;;3.70;99.90;;;;;;5010146;28;20072;-54
2022/01/19 13:13:04;;;;;;;45.88;27.48;;;3.80;99.90;;;;;;5010513;28;20038;-56
2022/01/19 13:15:46;;;;;;;43.75;26.60;;;3.80;99.90;;;;;;4985690;28;20026;-54
2022/01/19 13:18:15;;;;;;;42.33;27.38;;;3.70;99.90;;;;;;5010125;28;20392;-56
2022/01/19 13:20:54;;;;;;;41.53;25.35;;;3.70;99.90;;;;;;5009729;28;20064;-55
2022/01/19 13:23:21;;;;;;;42.55;26.45;;;3.70;99.90;;;;;;5009796;28;20045;-55
2022/01/19 13:25:59;;;;;;;38.47;25.00;;;3.80;99.90;;;;;;5010443;28;20443;-53
2022/01/19 13:28:30;;;;;;;39.65;25.52;;;3.80;99.90;;;;;;5010839;28;20029;-56
2022/01/19 13:31:07;;;;;;;39.67;25.17;;;3.80;99.90;;;;;;5010023;28;20563;-53
2022/01/19 13:33:33;;;;;;;39.38;26.48;;;3.70;99.90;;;;;;5010211;28;20411;-54
2022/01/19 13:36:01;;;;;;;43.80;25.90;;;3.70;99.90;;;;;;5009861;28;20038;-55
2022/01/19 13:38:27;;;;;;;45.22;26.60;;;3.80;99.90;;;;;;5010523;28;20528;-54
2022/01/19 13:41:02;;;;;;;38.05;23.92;;;3.80;99.90;;;;;;5009966;28;20022;-53
2022/01/19 13:43:32;;;;;;;39.10;25.48;;;3.80;99.90;;;;;;5010462;28;20551;-50
2022/01/19 13:46:02;;;;;;;40.95;26.75;;;3.80;99.90;;;;;;5009725;28;20041;-53
2022/01/19 13:48:29;;;;;;;43.55;25.88;;;3.80;99.90;;;;;;5010209;28;20022;-53
2022/01/19 13:51:06;;;;;;;47.33;27.83;;;3.80;99.90;;;;;;5010402;28;20129;-55
2022/01/19 13:53:41;;;;;;;42.63;28.50;;;3.80;99.90;;;;;;5009662;28;20124;-51
2022/01/19 13:56:10;;;;;;;45.83;27.38;;;3.90;99.90;;;;;;5009364;28;20488;-56
2022/01/19 13:58:47;;;;;;;42.47;26.98;;;3.80;99.90;;;;;;5009587;28;20129;-53
2022/01/19 14:01:19;;;;;;;43.92;26.85;;;3.80;99.90;;;;;;5009458;28;20034;-53
2022/01/19 14:03:49;;;;;;;38.67;25.63;;;3.90;99.90;;;;;;5009677;28;20026;-54
2022/01/19 14:06:22;;;;;;;45.67;26.80;;;3.90;99.90;;;;;;5009509;28;20463;-52